createdAt,value
2018-07-08T00:00:08.113Z,11.87
2018-07-08T00:02:37.836Z,11.87
2018-07-08T00:05:08.525Z,11.23
2018-07-08T00:07:36.843Z,11.90
2018-07-08T00:10:05.293Z,12.60
2018-07-08T00:12:35.577Z,14.07
2018-07-08T00:15:07.265Z,11.43
2018-07-08T00:17:37.511Z,10.90
2018-07-08T00:20:08.113Z,11.60
2018-07-08T00:22:36.298Z,12.33
2018-07-08T00:25:05.678Z,11.50
2018-07-08T00:27:36.262Z,12.27
2018-07-08T00:30:06.488Z,12.47
2018-07-08T00:32:35.715Z,12.33
2018-07-08T00:35:07.540Z,12.30
2018-07-08T00:37:36.704Z,12.53
2018-07-08T00:40:12.281Z,12.97
2018-07-08T00:42:42.405Z,12.90
2018-07-08T00:45:10.733Z,12.10
2018-07-08T00:47:39.565Z,11.20
2018-07-08T00:50:08.208Z,12.53
2018-07-08T00:52:36.630Z,11.90
2018-07-08T00:55:04.675Z,11.83
2018-07-08T00:57:36.293Z,11.97
2018-07-08T01:00:04.596Z,12.40
2018-07-08T01:02:34.447Z,11.73
2018-07-08T01:05:03.528Z,12.63
2018-07-08T01:07:34.155Z,13.30
2018-07-08T01:10:03.507Z,12.80
2018-07-08T01:12:32.379Z,12.50
2018-07-08T01:15:02.741Z,12.70
2018-07-08T01:17:31.017Z,13.73
2018-07-08T01:19:59.405Z,12.10
2018-07-08T01:22:27.844Z,11.77
2018-07-08T01:25:02.112Z,13.23
2018-07-08T01:27:31.889Z,11.77
2018-07-08T01:30:02.216Z,12.97
2018-07-08T01:32:30.861Z,13.97
2018-07-08T01:34:58.976Z,13.27
2018-07-08T01:37:29.758Z,12.80
2018-07-08T01:39:58.815Z,13.63
2018-07-08T01:42:27.444Z,14.97
2018-07-08T01:44:57.042Z,13.50
2018-07-08T01:47:26.217Z,13.37
2018-07-08T01:49:55.263Z,12.57
2018-07-08T01:52:25.973Z,12.30
2018-07-08T01:54:55.775Z,13.20
2018-07-08T01:57:24.964Z,14.60
2018-07-08T01:59:53.771Z,14.40
2018-07-08T02:02:24.313Z,13.23
2018-07-08T02:04:52.702Z,13.23
2018-07-08T02:07:21.388Z,12.77
2018-07-08T02:09:49.865Z,14.10
2018-07-08T02:12:18.947Z,13.80
2018-07-08T02:14:47.122Z,14.70
2018-07-08T02:17:15.293Z,14.30
2018-07-08T02:19:43.481Z,13.00
2018-07-08T02:22:11.682Z,13.87
2018-07-08T02:24:39.866Z,14.33
2018-07-08T02:27:07.892Z,13.57
2018-07-08T02:29:37.023Z,13.50
2018-07-08T02:32:05.161Z,13.20
2018-07-08T02:34:33.129Z,13.63
2018-07-08T02:37:01.685Z,12.40
2018-07-08T02:39:29.790Z,12.83
2018-07-08T02:41:57.953Z,14.60
2018-07-08T02:44:26.136Z,12.77
2018-07-08T02:46:54.855Z,11.93
2018-07-08T02:49:23.170Z,12.50
2018-07-08T02:51:51.487Z,13.60
2018-07-08T02:54:20.009Z,12.60
2018-07-08T02:56:48.165Z,12.07
2018-07-08T02:59:17.217Z,12.63
2018-07-08T03:01:45.184Z,12.90
2018-07-08T03:04:13.309Z,12.93
2018-07-08T03:06:41.578Z,12.97
2018-07-08T03:09:10.308Z,13.27
2018-07-08T03:14:12.787Z,12.70
2018-07-08T03:16:40.813Z,13.67
2018-07-08T03:19:08.794Z,13.67
2018-07-08T03:21:36.809Z,13.50
2018-07-08T03:24:04.944Z,14.43
2018-07-08T03:26:33.976Z,14.33
2018-07-08T03:29:01.955Z,14.23
2018-07-08T03:31:30.141Z,14.50
2018-07-08T03:33:58.125Z,13.33
2018-07-08T03:36:26.214Z,13.63
2018-07-08T03:38:54.313Z,13.50
2018-07-08T03:41:22.473Z,13.60
2018-07-08T03:43:51.014Z,13.50
2018-07-08T03:46:19.593Z,12.90
2018-07-08T03:48:47.572Z,13.93
2018-07-08T03:51:15.645Z,12.87
2018-07-08T03:53:43.648Z,12.70
2018-07-08T03:56:11.732Z,12.63
2018-07-08T03:58:39.696Z,13.30
2018-07-08T04:01:08.191Z,13.47
2018-07-08T04:03:36.617Z,12.50
2018-07-08T04:06:04.624Z,14.13
2018-07-08T04:08:32.626Z,13.73
2018-07-08T04:11:00.675Z,12.27
2018-07-08T04:13:28.774Z,13.93
2018-07-08T04:15:56.820Z,12.83
2018-07-08T04:18:24.931Z,13.60
2018-07-08T04:20:53.073Z,12.23
2018-07-08T04:23:21.247Z,13.07
2018-07-08T04:25:49.373Z,13.97
2018-07-08T04:28:17.355Z,12.13
2018-07-08T04:30:45.365Z,12.97
2018-07-08T04:33:13.426Z,12.43
2018-07-08T04:35:41.413Z,12.40
2018-07-08T04:38:09.412Z,11.93
2018-07-08T04:40:37.405Z,13.77
2018-07-08T04:43:05.482Z,13.47
2018-07-08T04:45:33.437Z,13.00
2018-07-08T04:48:01.458Z,12.40
2018-07-08T04:50:29.569Z,12.83
2018-07-08T04:52:57.599Z,12.87
2018-07-08T04:55:25.893Z,12.23
2018-07-08T04:57:54.010Z,11.53
2018-07-08T05:00:22.374Z,11.70
2018-07-08T05:02:50.865Z,12.07
2018-07-08T05:05:18.969Z,11.90
2018-07-08T05:07:47.214Z,12.43
2018-07-08T05:10:15.407Z,12.40
2018-07-08T05:12:43.410Z,11.40
2018-07-08T05:15:11.509Z,11.57
2018-07-08T05:17:39.492Z,11.00
2018-07-08T05:20:07.441Z,10.93
2018-07-08T05:22:35.463Z,12.20
2018-07-08T05:25:04.300Z,12.40
2018-07-08T05:27:32.233Z,12.77
2018-07-08T05:30:00.200Z,12.77
2018-07-08T05:32:28.355Z,12.07
2018-07-08T05:34:56.378Z,12.97
2018-07-08T05:37:24.413Z,10.50
2018-07-08T05:39:52.640Z,11.93
2018-07-08T05:42:20.806Z,11.27
2018-07-08T05:44:50.291Z,12.13
2018-07-08T05:47:18.966Z,11.43
2018-07-08T05:49:47.757Z,12.70
2018-07-08T05:52:15.763Z,13.17
2018-07-08T05:54:43.874Z,11.67
2018-07-08T05:57:13.418Z,12.03
2018-07-08T05:59:43.444Z,10.70
2018-07-08T06:02:12.939Z,12.03
2018-07-08T06:04:41.463Z,12.87
2018-07-08T06:07:09.433Z,12.10
2018-07-08T06:09:37.394Z,11.83
2018-07-08T06:12:05.417Z,10.73
2018-07-08T06:14:33.610Z,12.27
2018-07-08T06:17:01.678Z,12.10
2018-07-08T06:19:29.843Z,11.40
2018-07-08T06:21:58.007Z,11.93
2018-07-08T06:24:25.999Z,10.70
2018-07-08T06:26:54.177Z,11.10
2018-07-08T06:29:22.435Z,11.70
2018-07-08T06:31:50.898Z,12.00
2018-07-08T06:34:19.004Z,11.70
2018-07-08T06:36:46.955Z,11.17
2018-07-08T06:39:15.871Z,10.90
2018-07-08T06:41:43.944Z,10.30
2018-07-08T06:44:12.247Z,11.33
2018-07-08T06:46:40.425Z,11.50
2018-07-08T06:49:08.419Z,10.50
2018-07-08T06:51:37.404Z,11.27
2018-07-08T06:54:05.402Z,11.30
2018-07-08T06:56:33.344Z,11.30
2018-07-08T06:59:01.326Z,10.60
2018-07-08T07:01:29.466Z,12.20
2018-07-08T07:03:57.869Z,11.33
2018-07-08T07:06:26.050Z,11.90
2018-07-08T07:08:54.372Z,11.10
2018-07-08T07:11:22.816Z,11.33
2018-07-08T07:13:51.421Z,10.60
2018-07-08T07:16:19.593Z,11.63
2018-07-08T07:18:47.891Z,9.30
2018-07-08T07:21:16.414Z,11.30
2018-07-08T07:23:44.676Z,10.37
2018-07-08T07:26:12.857Z,10.10
2018-07-08T07:28:41.296Z,12.43
2018-07-08T07:31:10.190Z,11.60
2018-07-08T07:33:38.140Z,13.17
2018-07-08T07:36:06.123Z,11.60
2018-07-08T07:38:34.844Z,12.10
2018-07-08T07:41:02.928Z,12.97
2018-07-08T07:43:30.909Z,12.50
2018-07-08T07:45:59.060Z,11.40
2018-07-08T07:48:27.405Z,11.80
2018-07-08T07:50:55.782Z,12.33
2018-07-08T07:53:24.095Z,12.20
2018-07-08T07:55:52.777Z,11.50
2018-07-08T07:58:21.893Z,11.37
2018-07-08T08:00:50.322Z,12.10
2018-07-08T08:03:19.002Z,12.23
2018-07-08T08:05:47.123Z,11.10
2018-07-08T08:08:15.132Z,11.47
2018-07-08T08:10:43.635Z,12.97
2018-07-08T08:13:11.873Z,13.23
2018-07-08T08:15:40.130Z,12.43
2018-07-08T08:18:08.199Z,12.97
2018-07-08T08:20:36.281Z,12.00
2018-07-08T08:23:04.316Z,12.80
2018-07-08T08:25:32.317Z,13.23
2018-07-08T08:28:00.280Z,11.40
2018-07-08T08:30:28.336Z,11.30
2018-07-08T08:32:56.596Z,11.23
2018-07-08T08:35:24.973Z,10.97
2018-07-08T08:37:54.652Z,8.87
2018-07-08T08:40:24.149Z,8.93
2018-07-08T08:42:53.440Z,9.33
2018-07-08T08:45:23.524Z,10.00
2018-07-08T08:47:52.380Z,9.33
2018-07-08T08:50:21.362Z,10.93
2018-07-08T08:52:50.330Z,9.17
2018-07-08T08:55:18.816Z,10.80
2018-07-08T08:57:47.485Z,10.27
2018-07-08T09:00:17.514Z,8.73
2018-07-08T09:02:46.599Z,8.73
2018-07-08T09:05:14.610Z,8.93
2018-07-08T09:07:42.966Z,8.50
2018-07-08T09:10:11.021Z,7.33
2018-07-08T09:12:39.258Z,7.60
2018-07-08T09:15:07.220Z,8.23
2018-07-08T09:17:36.051Z,7.50
2018-07-08T09:20:04.289Z,6.80
2018-07-08T09:22:32.369Z,8.37
2018-07-08T09:25:00.377Z,7.97
2018-07-08T09:27:28.305Z,8.50
2018-07-08T09:29:56.584Z,6.63
2018-07-08T09:32:24.883Z,6.17
2018-07-08T09:34:53.080Z,7.10
2018-07-08T09:37:21.800Z,6.60
2018-07-08T09:39:50.390Z,7.50
2018-07-08T09:42:19.398Z,6.77
2018-07-08T09:44:47.523Z,6.37
2018-07-08T09:47:15.868Z,7.37
2018-07-08T09:49:44.159Z,7.87
2018-07-08T09:52:13.655Z,6.20
2018-07-08T09:54:42.490Z,5.70
2018-07-08T09:57:10.646Z,5.80
2018-07-08T09:59:38.627Z,5.70
2018-07-08T10:02:06.693Z,5.10
2018-07-08T10:04:34.959Z,5.73
2018-07-08T10:07:02.959Z,5.63
2018-07-08T10:09:32.190Z,4.80
2018-07-08T10:12:00.145Z,5.20
2018-07-08T10:14:29.154Z,5.70
2018-07-08T10:16:57.828Z,5.40
2018-07-08T10:19:26.233Z,5.10
2018-07-08T10:21:54.798Z,5.30
2018-07-08T10:24:23.178Z,5.37
2018-07-08T10:26:56.946Z,5.43
2018-07-08T10:29:25.174Z,5.90
2018-07-08T10:31:53.457Z,5.10
2018-07-08T10:34:21.723Z,4.60
2018-07-08T10:36:50.356Z,5.00
2018-07-08T10:39:18.776Z,4.60
2018-07-08T10:41:46.667Z,5.43
2018-07-08T10:44:14.600Z,4.60
2018-07-08T10:46:43.139Z,5.47
2018-07-08T10:49:11.236Z,4.93
2018-07-08T10:51:39.395Z,4.70
2018-07-08T10:54:07.883Z,4.80
2018-07-08T10:56:35.866Z,4.37
2018-07-08T10:59:04.066Z,4.43
2018-07-08T11:01:32.027Z,5.30
2018-07-08T11:04:00.053Z,4.80
2018-07-08T11:06:28.091Z,4.63
2018-07-08T11:08:56.139Z,4.83
2018-07-08T11:11:24.439Z,4.43
2018-07-08T11:13:52.710Z,4.90
2018-07-08T11:16:21.752Z,5.57
2018-07-08T11:18:49.981Z,5.07
2018-07-08T11:21:18.005Z,4.30
2018-07-08T11:23:45.967Z,5.50
2018-07-08T11:26:13.946Z,4.80
2018-07-08T11:28:42.047Z,4.10
2018-07-08T11:31:10.203Z,5.40
2018-07-08T11:33:39.303Z,4.63
2018-07-08T11:36:07.528Z,5.67
2018-07-08T11:38:35.480Z,4.43
2018-07-08T11:41:03.429Z,4.97
2018-07-08T11:43:31.888Z,4.07
2018-07-08T11:45:59.850Z,4.80
2018-07-08T11:48:27.801Z,6.83
2018-07-08T11:50:56.031Z,7.00
2018-07-08T11:53:24.370Z,4.93
2018-07-08T11:55:52.777Z,3.97
2018-07-08T11:58:21.642Z,5.80
2018-07-08T12:00:49.889Z,5.23
2018-07-08T12:03:18.401Z,4.33
2018-07-08T12:05:46.463Z,4.80
2018-07-08T12:08:14.646Z,5.30
2018-07-08T12:10:42.630Z,4.47
2018-07-08T12:13:10.714Z,4.60
2018-07-08T12:15:39.031Z,4.70
2018-07-08T12:18:07.343Z,4.53
2018-07-08T12:20:35.353Z,4.40
2018-07-08T12:23:03.334Z,3.67
2018-07-08T12:25:31.716Z,3.90
2018-07-08T12:27:59.714Z,4.80
2018-07-08T12:30:27.797Z,5.27
2018-07-08T12:32:55.914Z,4.40
2018-07-08T12:35:24.010Z,3.77
2018-07-08T12:37:52.443Z,3.90
2018-07-08T12:40:20.711Z,3.63
2018-07-08T12:42:48.821Z,3.80
2018-07-08T12:45:17.188Z,4.23
2018-07-08T12:47:45.146Z,3.80
2018-07-08T12:50:13.141Z,3.93
2018-07-08T12:52:41.127Z,4.03
2018-07-08T12:55:09.679Z,4.30
2018-07-08T12:57:37.738Z,3.63
2018-07-08T13:00:06.013Z,3.40
2018-07-08T13:02:34.217Z,3.40
2018-07-08T13:05:02.171Z,4.27
2018-07-08T13:07:30.867Z,4.30
2018-07-08T13:09:58.810Z,4.20
2018-07-08T13:12:26.880Z,3.80
2018-07-08T13:14:54.990Z,4.77
2018-07-08T13:17:23.286Z,4.07
2018-07-08T13:19:51.747Z,6.30
2018-07-08T13:22:20.154Z,3.87
2018-07-08T13:24:48.255Z,3.40
2018-07-08T13:27:16.267Z,3.27
2018-07-08T13:29:44.673Z,3.20
2018-07-08T13:32:12.818Z,3.90
2018-07-08T13:34:41.006Z,5.27
2018-07-08T13:37:09.076Z,3.60
2018-07-08T13:39:37.061Z,2.90
2018-07-08T13:42:05.251Z,3.30
2018-07-08T13:44:33.291Z,3.30
2018-07-08T13:47:01.301Z,2.67
2018-07-08T13:49:29.262Z,3.50
2018-07-08T13:51:57.349Z,2.93
2018-07-08T13:54:25.384Z,3.33
2018-07-08T13:56:53.566Z,2.53
2018-07-08T13:59:21.863Z,3.00
2018-07-08T14:01:50.142Z,2.47
2018-07-08T14:04:19.191Z,3.47
2018-07-08T14:06:47.329Z,3.13
2018-07-08T14:09:15.484Z,3.57
2018-07-08T14:11:43.396Z,3.27
2018-07-08T14:14:11.423Z,2.90
2018-07-08T14:16:39.954Z,2.80
2018-07-08T14:19:08.234Z,2.73
2018-07-08T14:21:36.299Z,2.77
2018-07-08T14:24:04.476Z,3.30
2018-07-08T14:26:32.421Z,2.90
2018-07-08T14:29:00.455Z,2.53
2018-07-08T14:31:28.537Z,2.77
2018-07-08T14:33:56.850Z,2.40
2018-07-08T14:36:25.080Z,3.67
2018-07-08T14:38:53.159Z,2.73
2018-07-08T14:41:21.496Z,2.93
2018-07-08T14:43:49.665Z,3.37
2018-07-08T14:46:18.010Z,3.23
2018-07-08T14:48:45.969Z,3.00
2018-07-08T14:51:14.016Z,2.33
2018-07-08T14:53:42.088Z,3.07
2018-07-08T14:56:10.388Z,2.70
2018-07-08T14:58:38.406Z,2.30
2018-07-08T15:01:06.354Z,2.70
2018-07-08T15:03:34.323Z,3.03
2018-07-08T15:06:03.212Z,2.80
2018-07-08T15:08:31.264Z,4.47
2018-07-08T15:10:59.209Z,2.93
2018-07-08T15:13:27.505Z,2.80
2018-07-08T15:15:55.756Z,3.13
2018-07-08T15:18:24.644Z,3.20
2018-07-08T15:20:53.008Z,2.40
2018-07-08T15:23:21.397Z,2.30
2018-07-08T15:25:49.655Z,2.57
2018-07-08T15:28:17.985Z,2.10
2018-07-08T15:30:46.179Z,2.93
2018-07-08T15:33:14.192Z,2.60
2018-07-08T15:35:42.810Z,2.50
2018-07-08T15:38:10.901Z,3.00
2018-07-08T15:40:38.921Z,2.23
2018-07-08T15:43:06.897Z,2.90
2018-07-08T15:45:34.838Z,2.03
2018-07-08T15:48:02.837Z,4.00
2018-07-08T15:50:31.867Z,3.07
2018-07-08T15:52:59.843Z,2.30
2018-07-08T15:55:28.298Z,2.20
2018-07-08T15:57:56.349Z,3.10
2018-07-08T16:00:24.449Z,2.47
2018-07-08T16:02:52.599Z,2.70
2018-07-08T16:05:20.915Z,1.77
2018-07-08T16:07:49.008Z,5.90
2018-07-08T16:10:17.006Z,1.80
2018-07-08T16:15:19.962Z,2.70
2018-07-08T16:17:48.997Z,2.20
2018-07-08T16:20:17.082Z,3.00
2018-07-08T16:22:45.040Z,2.73
2018-07-08T16:25:13.018Z,2.73
2018-07-08T16:27:41.351Z,2.43
2018-07-08T16:30:09.836Z,2.00
2018-07-08T16:32:38.394Z,1.80
2018-07-08T16:35:06.532Z,2.87
2018-07-08T16:37:34.800Z,2.70
2018-07-08T16:40:02.813Z,2.20
2018-07-08T16:42:30.839Z,2.37
2018-07-08T16:44:59.126Z,2.10
2018-07-08T16:47:27.102Z,2.17
2018-07-08T16:49:55.231Z,2.30
2018-07-08T16:52:24.307Z,2.00
2018-07-08T16:54:52.838Z,2.57
2018-07-08T16:57:21.490Z,2.30
2018-07-08T16:59:49.956Z,1.90
2018-07-08T17:02:18.474Z,2.20
2018-07-08T17:04:46.466Z,2.50
2018-07-08T17:07:14.430Z,2.77
2018-07-08T17:09:43.045Z,2.27
2018-07-08T17:12:11.265Z,2.40
2018-07-08T17:14:39.892Z,1.93
2018-07-08T17:17:08.226Z,2.40
2018-07-08T17:19:36.470Z,2.40
2018-07-08T17:22:04.405Z,2.50
2018-07-08T17:24:32.613Z,2.20
2018-07-08T17:27:00.550Z,2.27
2018-07-08T17:29:28.707Z,2.83
2018-07-08T17:31:56.720Z,2.57
2018-07-08T17:34:25.158Z,2.70
2018-07-08T17:36:53.395Z,2.27
2018-07-08T17:39:21.827Z,2.40
2018-07-08T17:41:50.441Z,2.17
2018-07-08T17:44:18.787Z,2.87
2018-07-08T17:46:46.890Z,2.50
2018-07-08T17:49:15.728Z,1.90
2018-07-08T17:51:43.978Z,2.47
2018-07-08T17:54:12.573Z,2.27
2018-07-08T17:56:40.538Z,2.43
2018-07-08T17:59:08.849Z,2.30
2018-07-08T18:01:37.307Z,2.30
2018-07-08T18:04:05.243Z,1.90
2018-07-08T18:06:33.309Z,2.90
2018-07-08T18:09:01.405Z,2.30
2018-07-08T18:11:29.384Z,2.20
2018-07-08T18:13:57.739Z,3.03
2018-07-08T18:16:25.949Z,2.93
2018-07-08T18:18:54.571Z,2.40
2018-07-08T18:21:22.955Z,3.30
2018-07-08T18:23:52.245Z,3.07
2018-07-08T18:26:21.217Z,3.03
2018-07-08T18:28:49.936Z,2.57
2018-07-08T18:31:18.487Z,2.70
2018-07-08T18:33:47.575Z,2.10
2018-07-08T18:36:16.273Z,3.00
2018-07-08T18:38:44.228Z,2.87
2018-07-08T18:41:12.254Z,2.57
2018-07-08T18:43:40.850Z,2.67
2018-07-08T18:46:09.016Z,2.70
2018-07-08T18:48:37.025Z,2.63
2018-07-08T18:51:04.941Z,2.43
2018-07-08T18:53:32.886Z,2.43
2018-07-08T18:56:01.804Z,1.87
2018-07-08T18:58:29.934Z,3.10
2018-07-08T19:00:57.985Z,3.07
2018-07-08T19:03:26.369Z,2.57
2018-07-08T19:05:55.074Z,3.13
2018-07-08T19:08:24.376Z,2.50
2018-07-08T19:10:52.977Z,2.60
2018-07-08T19:13:21.318Z,3.53
2018-07-08T19:15:49.926Z,3.27
2018-07-08T19:18:18.471Z,3.43
2018-07-08T19:20:46.421Z,3.47
2018-07-08T19:23:14.557Z,4.43
2018-07-08T19:25:42.752Z,5.13
2018-07-08T19:28:11.074Z,2.83
2018-07-08T19:30:41.332Z,3.50
2018-07-08T19:33:09.400Z,2.40
2018-07-08T19:35:37.341Z,2.73
2018-07-08T19:38:05.752Z,2.73
2018-07-08T19:40:33.823Z,3.63
2018-07-08T19:43:01.901Z,3.50
2018-07-08T19:45:29.889Z,2.30
2018-07-08T19:47:58.133Z,3.23
2018-07-08T19:50:26.208Z,3.57
2018-07-08T19:52:54.436Z,3.90
2018-07-08T19:55:22.949Z,5.30
2018-07-08T19:57:51.486Z,3.73
2018-07-08T20:00:19.538Z,3.53
2018-07-08T20:02:47.553Z,3.40
2018-07-08T20:05:16.181Z,2.80
2018-07-08T20:07:44.712Z,3.10
2018-07-08T20:10:12.827Z,3.40
2018-07-08T20:12:40.865Z,4.13
2018-07-08T20:15:08.853Z,3.47
2018-07-08T20:17:36.925Z,3.60
2018-07-08T20:20:05.183Z,3.23
2018-07-08T20:22:33.125Z,4.00
2018-07-08T20:25:01.342Z,6.17
2018-07-08T20:27:29.423Z,4.70
2018-07-08T20:29:57.603Z,4.37
2018-07-08T20:32:25.913Z,3.83
2018-07-08T20:34:54.831Z,3.17
2018-07-08T20:37:23.521Z,3.60
2018-07-08T20:39:51.950Z,3.70
2018-07-08T20:42:21.173Z,4.40
2018-07-08T20:44:49.430Z,5.10
2018-07-08T20:47:17.681Z,3.80
2018-07-08T20:49:46.062Z,4.53
2018-07-08T20:52:14.139Z,4.97
2018-07-08T20:54:42.137Z,4.77
2018-07-08T20:57:10.074Z,4.53
2018-07-08T20:59:38.059Z,4.73
2018-07-08T21:02:06.384Z,4.00
2018-07-08T21:04:34.397Z,4.77
2018-07-08T21:07:02.329Z,5.43
2018-07-08T21:09:30.475Z,5.80
2018-07-08T21:11:59.419Z,4.37
2018-07-08T21:14:27.474Z,3.77
2018-07-08T21:16:55.557Z,5.03
2018-07-08T21:19:23.732Z,4.30
2018-07-08T21:21:51.948Z,3.80
2018-07-08T21:24:20.335Z,4.83
2018-07-08T21:26:48.515Z,3.87
2018-07-08T21:29:16.726Z,4.40
2018-07-08T21:31:45.121Z,4.40
2018-07-08T21:34:13.153Z,3.87
2018-07-08T21:36:41.337Z,4.57
2018-07-08T21:39:10.342Z,3.77
2018-07-08T21:41:39.135Z,3.40
2018-07-08T21:44:07.281Z,3.33
2018-07-08T21:46:35.252Z,3.80
2018-07-08T21:49:03.222Z,4.17
2018-07-08T21:51:31.418Z,3.97
2018-07-08T21:53:59.615Z,3.30
2018-07-08T21:56:27.794Z,3.50
2018-07-08T21:58:55.973Z,4.77
2018-07-08T22:01:24.691Z,3.90
2018-07-08T22:03:53.101Z,3.73
2018-07-08T22:06:21.668Z,3.53
2018-07-08T22:08:49.906Z,3.57
2018-07-08T22:11:17.998Z,3.47
2018-07-08T22:13:46.346Z,3.27
2018-07-08T22:16:14.628Z,3.20
2018-07-08T22:18:42.659Z,3.47
2018-07-08T22:21:11.046Z,2.83
2018-07-08T22:23:39.007Z,3.10
2018-07-08T22:26:06.943Z,3.33
2018-07-08T22:28:34.981Z,2.73
2018-07-08T22:31:03.322Z,3.87
2018-07-08T22:33:31.359Z,2.40
2018-07-08T22:35:59.565Z,3.93
2018-07-08T22:38:27.745Z,3.33
2018-07-08T22:40:55.900Z,3.37
2018-07-08T22:43:24.327Z,4.47
2018-07-08T22:45:52.676Z,3.27
2018-07-08T22:48:22.324Z,3.13
2018-07-08T22:50:50.600Z,3.63
2018-07-08T22:53:18.688Z,3.87
2018-07-08T22:55:47.581Z,3.30
2018-07-08T22:58:15.813Z,5.10
2018-07-08T23:00:49.515Z,3.50
2018-07-08T23:03:25.582Z,3.40
2018-07-08T23:05:53.994Z,3.50
2018-07-08T23:08:22.373Z,2.87
2018-07-08T23:10:50.716Z,3.13
2018-07-08T23:13:19.136Z,3.00
2018-07-08T23:15:47.343Z,3.20
2018-07-08T23:18:15.485Z,2.67
2018-07-08T23:20:43.449Z,3.20
2018-07-08T23:23:11.378Z,3.13
2018-07-08T23:25:39.302Z,4.17
2018-07-08T23:28:07.520Z,4.17
2018-07-08T23:30:35.545Z,3.50
2018-07-08T23:33:03.513Z,3.33
2018-07-08T23:35:31.509Z,3.90
2018-07-08T23:37:59.675Z,3.10
2018-07-08T23:40:27.781Z,3.30
2018-07-08T23:42:55.959Z,3.83
2018-07-08T23:45:24.286Z,3.17
2018-07-08T23:47:52.572Z,3.00
2018-07-08T23:50:20.850Z,3.00
2018-07-08T23:52:49.017Z,3.33
2018-07-08T23:55:17.101Z,8.10
2018-07-08T23:57:45.101Z,3.43
